Flight Track Log - Related Links

Times and Time Zones

All times are in EDT time to prevent confusion due to time zone crossing. See the JZA8193 flight status page for this flight to view local times or setup timezone preferences in your user account.

Time Position Orientation Groundspeed Altitude Reporting Facility
EDT Latitude Longitude Course Direction KTS MPH feet Rate Location/Type
Sat 02:45:52 PM 50.7000 -120.4833 213° Southwest 100 115 3,400  Level Vancouver Center
Sat 02:46:52 PM 50.7167 -120.5500 292° West 130 150 5,200 1,650 Climbing Vancouver Center
Sat 02:47:52 PM 50.7000 -120.5833 232° Southwest 130 150 6,700 1,500 Climbing Vancouver Center
Sat 02:48:52 PM 50.6667 -120.6167 212° Southwest 140 161 8,200 1,350 Climbing Vancouver Center
Sat 02:49:00 PM 50.4449 -120.5333 180° South  Level FlightAware Approximate
Sat 02:49:52 PM 50.6333 -120.6667 224° Southwest 150 173 9,400  Level Vancouver Center
Sat 02:50:00 PM 50.4411 -120.6279 266° West  Level FlightAware Approximate
Sat 02:50:52 PM 50.5833 -120.7167 212° Southwest 180 207 10,600  Level Vancouver Center
Sat 02:51:00 PM 50.4055 -120.7044 213° Southwest  Level Estimated
Sat 02:51:52 PM 50.5500 -120.7833 232° Southwest 190 219 12,000  Level Vancouver Center
Sat 02:52:52 PM 50.5000 -120.8333 212° Southwest 200 230 12,000  Level Vancouver Center
Sat 02:53:52 PM 50.4500 -120.8833 212° Southwest 230 265 12,000  Level Vancouver Center
Sat 02:54:52 PM 50.4000 -120.9500 220° Southwest 240 276 12,000  Level Vancouver Center
Sat 02:55:52 PM 50.3333 -121.0333 219° Southwest 250 288 12,000  Level Vancouver Center
Sat 02:56:52 PM 50.2833 -121.0833 213° Southwest 250 288 12,000  Level Vancouver Center
Sat 02:57:52 PM 50.2500 -121.1667 238° Southwest 250 288 12,000  Level Vancouver Center
Sat 02:58:52 PM 50.1833 -121.2167 206° Southwest 250 288 12,000 -50 Level Vancouver Center
Sat 02:59:52 PM 50.1333 -121.3000 227° Southwest 260 299 11,900  Descending Vancouver Center
Sat 03:00:52 PM 50.0833 -121.3833 227° Southwest 250 288 12,000 50 Climbing Vancouver Center
Sat 03:01:52 PM 50.0333 -121.4333 213° Southwest 240 276 12,000  Level Vancouver Center
Sat 03:02:52 PM 49.9833 -121.5167 227° Southwest 240 276 12,000  Level Vancouver Center
Sat 03:03:52 PM 49.9333 -121.5667 213° Southwest 240 276 12,000  Level Vancouver Center
Sat 03:04:52 PM 49.8833 -121.6500 227° Southwest 240 276 12,000  Level Vancouver Center
Sat 03:05:52 PM 49.8333 -121.7333 227° Southwest 240 276 12,000  Level Vancouver Center
Sat 03:06:52 PM 49.7667 -121.8167 219° Southwest 240 276 12,000  Level Vancouver Center
Sat 03:07:52 PM 49.7167 -121.8667 213° Southwest 240 276 12,000  Level Vancouver Center
Sat 03:08:52 PM 49.6667 -121.9333 221° Southwest 240 276 12,000  Level Vancouver Center
Sat 03:09:52 PM 49.6167 -122.0000 221° Southwest 240 276 12,000  Level Vancouver Center
Sat 03:10:52 PM 49.5833 -122.0667 232° Southwest 240 276 12,000  Level Vancouver Center
Sat 03:11:52 PM 49.5333 -122.1500 227° Southwest 240 276 12,000  Level Vancouver Center
Sat 03:12:52 PM 49.5000 -122.2000 224° Southwest 240 276 12,000 -550 Level Vancouver Center
Sat 03:13:52 PM 49.4333 -122.2833 219° Southwest 240 276 10,900 -1,000 Descending Vancouver Center
Sat 03:14:52 PM 49.3833 -122.3333 213° Southwest 250 288 10,000 -450 Descending Vancouver Center
Sat 03:15:52 PM 49.3500 -122.4333 243° Southwest 240 276 10,000  Level Vancouver Center
Sat 03:16:52 PM 49.3167 -122.5167 238° Southwest 240 276 10,000  Level Vancouver Center
Sat 03:17:52 PM 49.2833 -122.6167 243° Southwest 240 276 10,000  Level Vancouver Center
Sat 03:18:52 PM 49.2500 -122.7000 239° Southwest 240 276 10,000 -100 Level Vancouver Center
Sat 03:19:52 PM 49.2333 -122.8000 256° West 230 265 9,800 -950 Descending Vancouver Center
Sat 03:20:52 PM 49.2167 -122.9000 256° West 240 276 8,100 -1,600 Descending Vancouver Center
Sat 03:21:52 PM 49.2333 -123.0000 284° West 250 288 6,600 -1,550 Descending Vancouver Center
Sat 03:22:52 PM 49.2500 -123.1167 282° West 250 288 5,000 -800 Descending Vancouver Center
Sat 03:23:52 PM 49.2500 -123.2167 270° West 250 288 5,000 -750 Level Vancouver Center
Sat 03:24:52 PM 49.2667 -123.3167 284° West 250 288 3,500 -1,200 Descending Vancouver Center
Sat 03:25:52 PM 49.2667 -123.4167 270° West 240 276 2,600 -750 Descending Vancouver Center
Sat 03:26:52 PM 49.2167 -123.3833 156° South 190 219 2,000 -450 Descending Vancouver Center
Sat 03:27:52 PM 49.2000 -123.3333 117° Southeast 170 196 1,700 -550 Descending Vancouver Center
Sat 03:28:52 PM 49.2000 -123.2667 90° East 160 184 900 -800 Descending Vancouver Center

Login

Don't have an account? Register now (free) for customized features, flight alerts, and more!